sensor_id;sensor_type;location;lat;lon;timestamp;P1;durP1;ratioP1;P2;durP2;ratioP2
41964;SDS011;50120;53.250;8.702;2022-09-14T00:01:30;3.30;;;1.00;;
41964;SDS011;50120;53.250;8.702;2022-09-14T00:03:59;3.65;;;1.00;;
41964;SDS011;50120;53.250;8.702;2022-09-14T00:06:27;2.33;;;0.90;;
41964;SDS011;50120;53.250;8.702;2022-09-14T00:08:55;3.65;;;0.90;;
41964;SDS011;50120;53.250;8.702;2022-09-14T00:11:22;4.97;;;1.10;;
41964;SDS011;50120;53.250;8.702;2022-09-14T00:13:50;2.78;;;0.98;;
41964;SDS011;50120;53.250;8.702;2022-09-14T00:16:17;4.82;;;1.20;;
41964;SDS011;50120;53.250;8.702;2022-09-14T00:18:48;7.28;;;1.20;;
41964;SDS011;50120;53.250;8.702;2022-09-14T00:21:15;3.67;;;1.02;;
41964;SDS011;50120;53.250;8.702;2022-09-14T00:23:41;3.95;;;0.90;;
41964;SDS011;50120;53.250;8.702;2022-09-14T00:26:08;3.97;;;1.25;;
41964;SDS011;50120;53.250;8.702;2022-09-14T00:28:45;5.72;;;1.00;;
41964;SDS011;50120;53.250;8.702;2022-09-14T00:31:12;3.85;;;1.00;;
41964;SDS011;50120;53.250;8.702;2022-09-14T00:33:40;4.25;;;1.17;;
41964;SDS011;50120;53.250;8.702;2022-09-14T00:36:07;5.65;;;1.23;;
41964;SDS011;50120;53.250;8.702;2022-09-14T00:38:34;3.63;;;1.10;;
41964;SDS011;50120;53.250;8.702;2022-09-14T00:41:01;3.08;;;1.05;;
41964;SDS011;50120;53.250;8.702;2022-09-14T00:43:28;3.33;;;1.30;;
41964;SDS011;50120;53.250;8.702;2022-09-14T00:45:54;3.65;;;1.20;;
41964;SDS011;50120;53.250;8.702;2022-09-14T00:48:20;3.80;;;1.17;;
41964;SDS011;50120;53.250;8.702;2022-09-14T00:50:48;4.05;;;1.10;;
41964;SDS011;50120;53.250;8.702;2022-09-14T00:53:13;3.70;;;1.17;;
41964;SDS011;50120;53.250;8.702;2022-09-14T00:55:39;3.05;;;1.25;;
41964;SDS011;50120;53.250;8.702;2022-09-14T00:58:05;4.78;;;1.60;;
41964;SDS011;50120;53.250;8.702;2022-09-14T01:00:31;4.18;;;1.75;;
41964;SDS011;50120;53.250;8.702;2022-09-14T01:02:56;4.43;;;2.05;;
41964;SDS011;50120;53.250;8.702;2022-09-14T01:05:26;4.80;;;2.03;;
41964;SDS011;50120;53.250;8.702;2022-09-14T01:08:09;5.55;;;2.10;;
41964;SDS011;50120;53.250;8.702;2022-09-14T01:19:05;5.75;;;2.08;;
41964;SDS011;50120;53.250;8.702;2022-09-14T01:21:54;3.08;;;1.65;;
41964;SDS011;50120;53.250;8.702;2022-09-14T01:30:10;8.82;;;1.75;;
41964;SDS011;50120;53.250;8.702;2022-09-14T01:32:42;5.05;;;1.50;;
41964;SDS011;50120;53.250;8.702;2022-09-14T01:40:36;4.95;;;1.80;;
41964;SDS011;50120;53.250;8.702;2022-09-14T01:43:10;4.63;;;1.42;;
41964;SDS011;50120;53.250;8.702;2022-09-14T01:45:40;6.93;;;1.70;;
41964;SDS011;50120;53.250;8.702;2022-09-14T01:48:10;2.60;;;1.38;;
41964;SDS011;50120;53.250;8.702;2022-09-14T01:50:44;7.03;;;1.60;;
41964;SDS011;50120;53.250;8.702;2022-09-14T01:53:15;5.53;;;1.40;;
41964;SDS011;50120;53.250;8.702;2022-09-14T01:59:11;4.47;;;1.40;;
41964;SDS011;50120;53.250;8.702;2022-09-14T02:01:45;5.22;;;1.52;;
41964;SDS011;50120;53.250;8.702;2022-09-14T02:04:23;6.18;;;1.50;;
41964;SDS011;50120;53.250;8.702;2022-09-14T02:06:55;7.18;;;1.35;;
41964;SDS011;50120;53.250;8.702;2022-09-14T02:09:22;3.40;;;1.70;;
41964;SDS011;50120;53.250;8.702;2022-09-14T02:11:51;3.90;;;1.50;;
41964;SDS011;50120;53.250;8.702;2022-09-14T02:14:18;2.75;;;1.70;;
41964;SDS011;50120;53.250;8.702;2022-09-14T02:16:44;5.57;;;1.70;;
41964;SDS011;50120;53.250;8.702;2022-09-14T02:19:10;5.25;;;1.75;;
41964;SDS011;50120;53.250;8.702;2022-09-14T02:21:37;5.07;;;1.80;;
41964;SDS011;50120;53.250;8.702;2022-09-14T02:24:04;3.58;;;1.80;;
41964;SDS011;50120;53.250;8.702;2022-09-14T02:26:30;7.57;;;1.98;;
41964;SDS011;50120;53.250;8.702;2022-09-14T02:28:56;4.85;;;1.67;;
41964;SDS011;50120;53.250;8.702;2022-09-14T02:36:41;4.78;;;1.63;;
41964;SDS011;50120;53.250;8.702;2022-09-14T02:49:57;4.15;;;2.00;;
41964;SDS011;50120;53.250;8.702;2022-09-14T02:55:06;6.22;;;1.95;;
41964;SDS011;50120;53.250;8.702;2022-09-14T03:00:32;5.95;;;1.83;;
41964;SDS011;50120;53.250;8.702;2022-09-14T03:03:01;4.50;;;2.00;;
41964;SDS011;50120;53.250;8.702;2022-09-14T03:05:28;4.15;;;1.80;;
41964;SDS011;50120;53.250;8.702;2022-09-14T03:07:53;4.28;;;1.73;;
41964;SDS011;50120;53.250;8.702;2022-09-14T03:10:19;5.43;;;1.85;;
41964;SDS011;50120;53.250;8.702;2022-09-14T03:12:45;8.02;;;2.10;;
41964;SDS011;50120;53.250;8.702;2022-09-14T03:15:11;4.78;;;1.80;;
41964;SDS011;50120;53.250;8.702;2022-09-14T03:17:37;5.90;;;1.55;;
41964;SDS011;50120;53.250;8.702;2022-09-14T03:20:03;8.93;;;1.95;;
41964;SDS011;50120;53.250;8.702;2022-09-14T03:22:29;6.70;;;1.65;;
41964;SDS011;50120;53.250;8.702;2022-09-14T03:24:56;4.38;;;1.60;;
41964;SDS011;50120;53.250;8.702;2022-09-14T03:27:21;6.35;;;1.98;;
41964;SDS011;50120;53.250;8.702;2022-09-14T03:29:47;4.97;;;1.67;;
41964;SDS011;50120;53.250;8.702;2022-09-14T03:32:13;4.15;;;1.45;;
41964;SDS011;50120;53.250;8.702;2022-09-14T03:34:38;5.47;;;1.50;;
41964;SDS011;50120;53.250;8.702;2022-09-14T03:37:05;5.68;;;1.65;;
41964;SDS011;50120;53.250;8.702;2022-09-14T03:39:31;5.00;;;1.58;;
41964;SDS011;50120;53.250;8.702;2022-09-14T03:41:57;4.65;;;1.70;;
41964;SDS011;50120;53.250;8.702;2022-09-14T03:44:22;3.70;;;1.67;;
41964;SDS011;50120;53.250;8.702;2022-09-14T03:46:48;6.82;;;1.95;;
41964;SDS011;50120;53.250;8.702;2022-09-14T03:49:14;3.83;;;1.90;;
41964;SDS011;50120;53.250;8.702;2022-09-14T03:51:39;10.25;;;2.30;;
41964;SDS011;50120;53.250;8.702;2022-09-14T03:54:05;7.13;;;2.30;;
41964;SDS011;50120;53.250;8.702;2022-09-14T03:56:33;6.90;;;2.58;;
41964;SDS011;50120;53.250;8.702;2022-09-14T03:58:59;6.10;;;2.42;;
41964;SDS011;50120;53.250;8.702;2022-09-14T04:01:25;6.47;;;2.80;;
41964;SDS011;50120;53.250;8.702;2022-09-14T04:03:50;9.93;;;2.85;;
41964;SDS011;50120;53.250;8.702;2022-09-14T04:06:17;9.20;;;2.78;;
41964;SDS011;50120;53.250;8.702;2022-09-14T04:08:43;5.72;;;2.90;;
41964;SDS011;50120;53.250;8.702;2022-09-14T04:11:14;8.00;;;2.60;;
41964;SDS011;50120;53.250;8.702;2022-09-14T04:13:43;5.40;;;2.85;;
41964;SDS011;50120;53.250;8.702;2022-09-14T04:16:09;3.80;;;2.30;;
41964;SDS011;50120;53.250;8.702;2022-09-14T04:18:35;5.57;;;2.40;;
41964;SDS011;50120;53.250;8.702;2022-09-14T04:21:09;10.25;;;3.13;;
41964;SDS011;50120;53.250;8.702;2022-09-14T04:23:38;6.15;;;2.67;;
41964;SDS011;50120;53.250;8.702;2022-09-14T04:26:14;6.03;;;2.70;;
41964;SDS011;50120;53.250;8.702;2022-09-14T04:28:42;6.03;;;2.40;;
41964;SDS011;50120;53.250;8.702;2022-09-14T04:31:09;6.43;;;2.70;;
41964;SDS011;50120;53.250;8.702;2022-09-14T04:33:36;5.07;;;2.70;;
41964;SDS011;50120;53.250;8.702;2022-09-14T04:36:07;8.50;;;2.70;;
41964;SDS011;50120;53.250;8.702;2022-09-14T04:38:34;6.95;;;3.08;;
41964;SDS011;50120;53.250;8.702;2022-09-14T04:41:05;6.20;;;2.70;;
41964;SDS011;50120;53.250;8.702;2022-09-14T04:43:32;7.05;;;2.60;;
41964;SDS011;50120;53.250;8.702;2022-09-14T04:46:02;5.43;;;2.72;;
41964;SDS011;50120;53.250;8.702;2022-09-14T04:48:33;7.15;;;2.83;;
41964;SDS011;50120;53.250;8.702;2022-09-14T04:51:18;6.80;;;2.90;;
41964;SDS011;50120;53.250;8.702;2022-09-14T04:53:47;5.40;;;2.60;;
41964;SDS011;50120;53.250;8.702;2022-09-14T04:56:14;7.68;;;2.97;;
41964;SDS011;50120;53.250;8.702;2022-09-14T04:58:42;5.63;;;2.75;;
41964;SDS011;50120;53.250;8.702;2022-09-14T05:01:17;6.75;;;3.08;;
41964;SDS011;50120;53.250;8.702;2022-09-14T05:03:44;6.82;;;3.10;;
41964;SDS011;50120;53.250;8.702;2022-09-14T05:06:29;8.10;;;3.63;;
41964;SDS011;50120;53.250;8.702;2022-09-14T05:08:57;8.70;;;3.33;;
41964;SDS011;50120;53.250;8.702;2022-09-14T05:11:25;6.78;;;3.15;;
41964;SDS011;50120;53.250;8.702;2022-09-14T05:13:53;7.45;;;3.33;;
41964;SDS011;50120;53.250;8.702;2022-09-14T05:16:24;7.30;;;3.45;;
41964;SDS011;50120;53.250;8.702;2022-09-14T05:18:52;9.15;;;3.58;;
41964;SDS011;50120;53.250;8.702;2022-09-14T05:21:20;9.68;;;3.55;;
41964;SDS011;50120;53.250;8.702;2022-09-14T05:23:51;9.73;;;4.03;;
41964;SDS011;50120;53.250;8.702;2022-09-14T05:26:22;5.97;;;3.58;;
41964;SDS011;50120;53.250;8.702;2022-09-14T05:28:50;6.68;;;3.75;;
41964;SDS011;50120;53.250;8.702;2022-09-14T05:31:17;9.02;;;3.58;;
41964;SDS011;50120;53.250;8.702;2022-09-14T05:33:43;7.75;;;4.22;;
41964;SDS011;50120;53.250;8.702;2022-09-14T05:36:08;6.72;;;3.90;;
41964;SDS011;50120;53.250;8.702;2022-09-14T05:38:35;7.57;;;3.80;;
41964;SDS011;50120;53.250;8.702;2022-09-14T05:41:02;6.70;;;3.95;;
41964;SDS011;50120;53.250;8.702;2022-09-14T05:43:28;6.50;;;3.78;;
41964;SDS011;50120;53.250;8.702;2022-09-14T05:45:54;7.55;;;3.38;;
41964;SDS011;50120;53.250;8.702;2022-09-14T05:48:20;9.00;;;3.60;;
41964;SDS011;50120;53.250;8.702;2022-09-14T05:50:46;7.43;;;3.08;;
41964;SDS011;50120;53.250;8.702;2022-09-14T05:53:12;5.85;;;3.40;;
41964;SDS011;50120;53.250;8.702;2022-09-14T05:55:38;7.22;;;2.95;;
41964;SDS011;50120;53.250;8.702;2022-09-14T05:58:04;6.80;;;2.78;;
41964;SDS011;50120;53.250;8.702;2022-09-14T06:00:30;5.88;;;2.47;;
41964;SDS011;50120;53.250;8.702;2022-09-14T06:02:55;5.32;;;2.50;;
41964;SDS011;50120;53.250;8.702;2022-09-14T06:05:21;6.55;;;2.50;;
41964;SDS011;50120;53.250;8.702;2022-09-14T06:07:52;7.80;;;2.70;;
41964;SDS011;50120;53.250;8.702;2022-09-14T06:10:19;5.90;;;2.30;;
41964;SDS011;50120;53.250;8.702;2022-09-14T06:12:45;6.43;;;2.20;;
41964;SDS011;50120;53.250;8.702;2022-09-14T06:15:11;5.88;;;2.28;;
41964;SDS011;50120;53.250;8.702;2022-09-14T06:17:37;3.88;;;1.98;;
41964;SDS011;50120;53.250;8.702;2022-09-14T06:20:03;3.92;;;2.47;;
41964;SDS011;50120;53.250;8.702;2022-09-14T06:22:31;10.20;;;2.45;;
41964;SDS011;50120;53.250;8.702;2022-09-14T06:24:57;8.25;;;2.80;;
41964;SDS011;50120;53.250;8.702;2022-09-14T06:27:23;7.78;;;2.25;;
41964;SDS011;50120;53.250;8.702;2022-09-14T06:29:49;9.25;;;2.83;;
41964;SDS011;50120;53.250;8.702;2022-09-14T06:32:17;5.03;;;2.10;;
41964;SDS011;50120;53.250;8.702;2022-09-14T06:34:44;6.45;;;2.45;;
41964;SDS011;50120;53.250;8.702;2022-09-14T06:37:09;5.13;;;1.90;;
41964;SDS011;50120;53.250;8.702;2022-09-14T06:39:35;5.55;;;2.00;;
41964;SDS011;50120;53.250;8.702;2022-09-14T06:42:01;10.60;;;2.50;;
41964;SDS011;50120;53.250;8.702;2022-09-14T06:44:27;4.32;;;1.70;;
41964;SDS011;50120;53.250;8.702;2022-09-14T06:46:53;9.05;;;2.20;;
41964;SDS011;50120;53.250;8.702;2022-09-14T06:49:18;4.95;;;1.83;;
41964;SDS011;50120;53.250;8.702;2022-09-14T06:51:47;6.75;;;1.88;;
41964;SDS011;50120;53.250;8.702;2022-09-14T06:54:15;7.93;;;2.15;;
41964;SDS011;50120;53.250;8.702;2022-09-14T06:56:42;7.03;;;1.88;;
41964;SDS011;50120;53.250;8.702;2022-09-14T06:59:10;5.03;;;1.92;;
41964;SDS011;50120;53.250;8.702;2022-09-14T07:01:39;8.90;;;1.90;;
41964;SDS011;50120;53.250;8.702;2022-09-14T07:04:05;4.45;;;1.73;;
41964;SDS011;50120;53.250;8.702;2022-09-14T07:06:36;6.25;;;1.60;;
41964;SDS011;50120;53.250;8.702;2022-09-14T07:09:03;7.05;;;1.60;;
41964;SDS011;50120;53.250;8.702;2022-09-14T07:11:29;4.57;;;1.95;;
41964;SDS011;50120;53.250;8.702;2022-09-14T07:13:55;8.35;;;2.15;;
41964;SDS011;50120;53.250;8.702;2022-09-14T07:16:24;7.15;;;1.90;;
41964;SDS011;50120;53.250;8.702;2022-09-14T07:18:52;6.28;;;1.98;;
41964;SDS011;50120;53.250;8.702;2022-09-14T07:21:19;8.95;;;1.75;;
41964;SDS011;50120;53.250;8.702;2022-09-14T07:23:45;4.97;;;1.80;;
41964;SDS011;50120;53.250;8.702;2022-09-14T07:26:19;6.72;;;2.10;;
41964;SDS011;50120;53.250;8.702;2022-09-14T07:28:48;7.07;;;1.73;;
41964;SDS011;50120;53.250;8.702;2022-09-14T07:33:43;4.45;;;1.58;;
41964;SDS011;50120;53.250;8.702;2022-09-14T07:36:09;4.95;;;1.58;;
41964;SDS011;50120;53.250;8.702;2022-09-14T07:38:36;4.57;;;1.60;;
41964;SDS011;50120;53.250;8.702;2022-09-14T07:41:02;3.95;;;1.40;;
41964;SDS011;50120;53.250;8.702;2022-09-14T07:43:28;3.55;;;1.48;;
41964;SDS011;50120;53.250;8.702;2022-09-14T07:45:55;6.13;;;1.50;;
41964;SDS011;50120;53.250;8.702;2022-09-14T07:48:21;4.03;;;1.67;;
41964;SDS011;50120;53.250;8.702;2022-09-14T07:50:47;6.70;;;1.30;;
41964;SDS011;50120;53.250;8.702;2022-09-14T07:53:23;6.95;;;1.50;;
41964;SDS011;50120;53.250;8.702;2022-09-14T07:55:49;7.15;;;1.42;;
41964;SDS011;50120;53.250;8.702;2022-09-14T07:58:14;6.47;;;1.30;;
41964;SDS011;50120;53.250;8.702;2022-09-14T08:00:40;6.90;;;1.77;;
41964;SDS011;50120;53.250;8.702;2022-09-14T08:03:06;5.90;;;1.60;;
41964;SDS011;50120;53.250;8.702;2022-09-14T08:05:32;4.78;;;1.17;;
41964;SDS011;50120;53.250;8.702;2022-09-14T08:07:58;5.32;;;1.08;;
41964;SDS011;50120;53.250;8.702;2022-09-14T08:10:24;5.40;;;1.30;;
41964;SDS011;50120;53.250;8.702;2022-09-14T08:12:53;7.05;;;1.30;;
41964;SDS011;50120;53.250;8.702;2022-09-14T08:15:20;7.78;;;1.45;;
41964;SDS011;50120;53.250;8.702;2022-09-14T08:17:47;5.90;;;1.17;;
41964;SDS011;50120;53.250;8.702;2022-09-14T08:20:13;6.80;;;1.00;;
41964;SDS011;50120;53.250;8.702;2022-09-14T08:22:44;4.93;;;0.88;;
41964;SDS011;50120;53.250;8.702;2022-09-14T08:25:10;4.18;;;1.00;;
41964;SDS011;50120;53.250;8.702;2022-09-14T08:27:36;6.45;;;1.30;;
41964;SDS011;50120;53.250;8.702;2022-09-14T08:30:03;5.22;;;1.25;;
41964;SDS011;50120;53.250;8.702;2022-09-14T08:32:30;6.35;;;1.20;;
41964;SDS011;50120;53.250;8.702;2022-09-14T08:34:55;6.22;;;1.60;;
41964;SDS011;50120;53.250;8.702;2022-09-14T08:37:22;4.65;;;1.10;;
41964;SDS011;50120;53.250;8.702;2022-09-14T08:39:48;9.90;;;1.52;;
41964;SDS011;50120;53.250;8.702;2022-09-14T08:42:15;3.15;;;1.02;;
41964;SDS011;50120;53.250;8.702;2022-09-14T08:44:47;3.17;;;0.93;;
41964;SDS011;50120;53.250;8.702;2022-09-14T08:47:26;7.65;;;1.35;;
41964;SDS011;50120;53.250;8.702;2022-09-14T08:50:04;4.45;;;1.25;;
41964;SDS011;50120;53.250;8.702;2022-09-14T08:52:37;6.70;;;0.95;;
41964;SDS011;50120;53.250;8.702;2022-09-14T08:57:49;8.63;;;1.08;;
41964;SDS011;50120;53.250;8.702;2022-09-14T09:00:38;5.15;;;1.00;;
41964;SDS011;50120;53.250;8.702;2022-09-14T09:03:21;7.63;;;1.08;;
41964;SDS011;50120;53.250;8.702;2022-09-14T09:11:13;5.95;;;1.13;;
41964;SDS011;50120;53.250;8.702;2022-09-14T09:13:43;4.30;;;0.95;;
41964;SDS011;50120;53.250;8.702;2022-09-14T09:16:10;5.30;;;0.93;;
41964;SDS011;50120;53.250;8.702;2022-09-14T09:18:45;5.57;;;1.02;;
41964;SDS011;50120;53.250;8.702;2022-09-14T09:21:22;3.60;;;0.98;;
41964;SDS011;50120;53.250;8.702;2022-09-14T09:26:51;7.30;;;1.15;;
41964;SDS011;50120;53.250;8.702;2022-09-14T09:29:17;3.22;;;0.82;;
41964;SDS011;50120;53.250;8.702;2022-09-14T09:31:44;4.88;;;0.80;;
41964;SDS011;50120;53.250;8.702;2022-09-14T09:34:15;5.43;;;0.80;;
41964;SDS011;50120;53.250;8.702;2022-09-14T09:36:46;5.72;;;1.00;;
41964;SDS011;50120;53.250;8.702;2022-09-14T09:39:13;5.18;;;1.20;;
41964;SDS011;50120;53.250;8.702;2022-09-14T09:44:08;6.20;;;1.00;;
41964;SDS011;50120;53.250;8.702;2022-09-14T09:46:38;5.38;;;1.13;;
41964;SDS011;50120;53.250;8.702;2022-09-14T09:49:34;3.75;;;1.10;;
41964;SDS011;50120;53.250;8.702;2022-09-14T09:52:19;4.45;;;0.80;;
41964;SDS011;50120;53.250;8.702;2022-09-14T09:54:49;2.42;;;0.60;;
41964;SDS011;50120;53.250;8.702;2022-09-14T09:57:34;3.95;;;0.82;;
41964;SDS011;50120;53.250;8.702;2022-09-14T10:00:17;4.20;;;1.15;;
41964;SDS011;50120;53.250;8.702;2022-09-14T10:02:43;3.70;;;0.73;;
41964;SDS011;50120;53.250;8.702;2022-09-14T10:07:57;3.53;;;0.90;;
41964;SDS011;50120;53.250;8.702;2022-09-14T10:10:48;2.90;;;0.85;;
41964;SDS011;50120;53.250;8.702;2022-09-14T10:13:36;4.88;;;0.90;;
41964;SDS011;50120;53.250;8.702;2022-09-14T10:16:12;2.90;;;0.70;;
41964;SDS011;50120;53.250;8.702;2022-09-14T10:18:44;4.07;;;0.98;;
41964;SDS011;50120;53.250;8.702;2022-09-14T10:21:20;4.07;;;0.70;;
41964;SDS011;50120;53.250;8.702;2022-09-14T10:24:01;4.80;;;0.88;;
41964;SDS011;50120;53.250;8.702;2022-09-14T10:26:33;3.60;;;0.80;;
41964;SDS011;50120;53.250;8.702;2022-09-14T10:29:22;2.72;;;0.50;;
41964;SDS011;50120;53.250;8.702;2022-09-14T10:32:09;3.95;;;0.63;;
41964;SDS011;50120;53.250;8.702;2022-09-14T10:34:43;3.13;;;0.70;;
41964;SDS011;50120;53.250;8.702;2022-09-14T10:37:29;4.63;;;1.00;;
41964;SDS011;50120;53.250;8.702;2022-09-14T10:40:14;4.90;;;1.08;;
41964;SDS011;50120;53.250;8.702;2022-09-14T10:42:48;2.78;;;0.95;;
41964;SDS011;50120;53.250;8.702;2022-09-14T10:45:55;3.45;;;0.90;;
41964;SDS011;50120;53.250;8.702;2022-09-14T10:59:53;3.55;;;0.77;;
41964;SDS011;50120;53.250;8.702;2022-09-14T11:02:43;4.05;;;0.80;;
41964;SDS011;50120;53.250;8.702;2022-09-14T11:05:35;3.95;;;1.00;;
41964;SDS011;50120;53.250;8.702;2022-09-14T11:11:13;4.88;;;1.30;;
41964;SDS011;50120;53.250;8.702;2022-09-14T11:22:08;7.07;;;1.02;;
41964;SDS011;50120;53.250;8.702;2022-09-14T11:30:46;4.80;;;1.05;;
41964;SDS011;50120;53.250;8.702;2022-09-14T11:33:35;5.20;;;0.90;;
41964;SDS011;50120;53.250;8.702;2022-09-14T11:36:22;5.65;;;1.10;;
41964;SDS011;50120;53.250;8.702;2022-09-14T11:38:59;10.38;;;0.98;;
41964;SDS011;50120;53.250;8.702;2022-09-14T11:42:00;4.38;;;0.90;;
41964;SDS011;50120;53.250;8.702;2022-09-14T11:44:32;4.30;;;0.77;;
41964;SDS011;50120;53.250;8.702;2022-09-14T11:47:04;3.78;;;0.80;;
41964;SDS011;50120;53.250;8.702;2022-09-14T11:49:57;5.75;;;1.00;;
41964;SDS011;50120;53.250;8.702;2022-09-14T11:52:29;4.15;;;0.80;;
41964;SDS011;50120;53.250;8.702;2022-09-14T11:54:56;3.70;;;0.75;;
41964;SDS011;50120;53.250;8.702;2022-09-14T11:57:25;2.67;;;0.82;;
41964;SDS011;50120;53.250;8.702;2022-09-14T11:59:59;4.30;;;0.70;;
41964;SDS011;50120;53.250;8.702;2022-09-14T12:05:34;5.10;;;0.88;;
41964;SDS011;50120;53.250;8.702;2022-09-14T12:10:25;3.55;;;0.90;;
41964;SDS011;50120;53.250;8.702;2022-09-14T12:12:52;4.60;;;0.80;;
41964;SDS011;50120;53.250;8.702;2022-09-14T12:28:46;7.30;;;0.98;;
41964;SDS011;50120;53.250;8.702;2022-09-14T12:34:05;7.43;;;1.38;;
41964;SDS011;50120;53.250;8.702;2022-09-14T12:39:05;6.68;;;0.90;;
41964;SDS011;50120;53.250;8.702;2022-09-14T12:44:43;4.28;;;1.00;;
41964;SDS011;50120;53.250;8.702;2022-09-14T12:49:48;7.50;;;1.15;;
41964;SDS011;50120;53.250;8.702;2022-09-14T12:52:20;10.85;;;1.20;;
41964;SDS011;50120;53.250;8.702;2022-09-14T12:58:17;4.90;;;1.17;;
41964;SDS011;50120;53.250;8.702;2022-09-14T13:01:25;2.92;;;0.90;;
41964;SDS011;50120;53.250;8.702;2022-09-14T13:03:54;8.13;;;1.10;;
41964;SDS011;50120;53.250;8.702;2022-09-14T13:06:21;7.00;;;1.20;;
41964;SDS011;50120;53.250;8.702;2022-09-14T13:08:56;5.97;;;1.13;;
41964;SDS011;50120;53.250;8.702;2022-09-14T13:11:23;8.23;;;1.40;;
41964;SDS011;50120;53.250;8.702;2022-09-14T13:14:01;6.28;;;1.05;;
41964;SDS011;50120;53.250;8.702;2022-09-14T13:16:43;4.95;;;1.20;;
41964;SDS011;50120;53.250;8.702;2022-09-14T13:19:22;4.13;;;1.27;;
41964;SDS011;50120;53.250;8.702;2022-09-14T13:21:59;2.55;;;0.73;;
41964;SDS011;50120;53.250;8.702;2022-09-14T13:24:28;7.78;;;1.30;;
41964;SDS011;50120;53.250;8.702;2022-09-14T13:27:03;5.18;;;1.05;;
41964;SDS011;50120;53.250;8.702;2022-09-14T13:29:30;2.95;;;1.00;;
41964;SDS011;50120;53.250;8.702;2022-09-14T13:31:56;4.88;;;0.98;;
41964;SDS011;50120;53.250;8.702;2022-09-14T13:34:27;4.45;;;1.00;;
41964;SDS011;50120;53.250;8.702;2022-09-14T13:36:55;3.97;;;0.80;;
41964;SDS011;50120;53.250;8.702;2022-09-14T13:39:35;4.00;;;1.00;;
41964;SDS011;50120;53.250;8.702;2022-09-14T13:42:02;4.38;;;1.13;;
41964;SDS011;50120;53.250;8.702;2022-09-14T13:44:33;6.28;;;1.23;;
41964;SDS011;50120;53.250;8.702;2022-09-14T13:47:06;4.70;;;1.10;;
41964;SDS011;50120;53.250;8.702;2022-09-14T13:49:33;6.35;;;1.25;;
41964;SDS011;50120;53.250;8.702;2022-09-14T13:52:24;7.38;;;1.38;;
41964;SDS011;50120;53.250;8.702;2022-09-14T14:03:30;5.50;;;1.33;;
41964;SDS011;50120;53.250;8.702;2022-09-14T14:06:37;4.05;;;1.00;;
41964;SDS011;50120;53.250;8.702;2022-09-14T14:08:59;3.60;;;1.10;;
41964;SDS011;50120;53.250;8.702;2022-09-14T14:11:30;5.60;;;1.00;;
41964;SDS011;50120;53.250;8.702;2022-09-14T14:14:18;5.57;;;1.10;;
41964;SDS011;50120;53.250;8.702;2022-09-14T14:19:46;3.65;;;0.85;;
41964;SDS011;50120;53.250;8.702;2022-09-14T14:24:45;4.50;;;1.17;;
41964;SDS011;50120;53.250;8.702;2022-09-14T14:30:07;3.35;;;0.95;;
41964;SDS011;50120;53.250;8.702;2022-09-14T14:32:38;4.40;;;1.00;;
41964;SDS011;50120;53.250;8.702;2022-09-14T14:35:07;7.80;;;1.98;;
41964;SDS011;50120;53.250;8.702;2022-09-14T14:37:46;5.25;;;0.90;;
41964;SDS011;50120;53.250;8.702;2022-09-14T14:40:13;2.10;;;1.05;;
41964;SDS011;50120;53.250;8.702;2022-09-14T14:42:40;5.80;;;1.00;;
41964;SDS011;50120;53.250;8.702;2022-09-14T14:45:16;3.95;;;1.10;;
41964;SDS011;50120;53.250;8.702;2022-09-14T14:47:48;3.15;;;0.88;;
41964;SDS011;50120;53.250;8.702;2022-09-14T14:50:19;5.07;;;0.73;;
41964;SDS011;50120;53.250;8.702;2022-09-14T14:52:47;4.72;;;1.02;;
41964;SDS011;50120;53.250;8.702;2022-09-14T14:55:14;3.55;;;0.95;;
41964;SDS011;50120;53.250;8.702;2022-09-14T14:57:39;5.05;;;1.20;;
41964;SDS011;50120;53.250;8.702;2022-09-14T15:00:10;4.75;;;1.30;;
41964;SDS011;50120;53.250;8.702;2022-09-14T15:02:42;2.75;;;0.85;;
41964;SDS011;50120;53.250;8.702;2022-09-14T15:05:08;5.25;;;1.10;;
41964;SDS011;50120;53.250;8.702;2022-09-14T15:07:34;4.63;;;0.90;;
41964;SDS011;50120;53.250;8.702;2022-09-14T15:10:00;4.28;;;1.08;;
41964;SDS011;50120;53.250;8.702;2022-09-14T15:12:25;9.23;;;1.40;;
41964;SDS011;50120;53.250;8.702;2022-09-14T15:14:51;2.17;;;0.77;;
41964;SDS011;50120;53.250;8.702;2022-09-14T15:17:17;4.28;;;0.85;;
41964;SDS011;50120;53.250;8.702;2022-09-14T15:19:43;2.80;;;0.90;;
41964;SDS011;50120;53.250;8.702;2022-09-14T15:22:09;4.65;;;0.90;;
41964;SDS011;50120;53.250;8.702;2022-09-14T15:24:35;3.63;;;0.90;;
41964;SDS011;50120;53.250;8.702;2022-09-14T15:27:01;3.60;;;0.82;;
41964;SDS011;50120;53.250;8.702;2022-09-14T15:29:27;4.75;;;0.90;;
41964;SDS011;50120;53.250;8.702;2022-09-14T15:31:53;2.05;;;0.70;;
41964;SDS011;50120;53.250;8.702;2022-09-14T15:34:19;2.85;;;0.70;;
41964;SDS011;50120;53.250;8.702;2022-09-14T15:36:46;1.80;;;0.80;;
41964;SDS011;50120;53.250;8.702;2022-09-14T15:39:19;3.60;;;0.90;;
41964;SDS011;50120;53.250;8.702;2022-09-14T15:41:46;3.28;;;0.70;;
41964;SDS011;50120;53.250;8.702;2022-09-14T15:44:13;3.33;;;0.90;;
41964;SDS011;50120;53.250;8.702;2022-09-14T15:46:39;1.02;;;0.60;;
41964;SDS011;50120;53.250;8.702;2022-09-14T15:49:09;2.67;;;0.75;;
41964;SDS011;50120;53.250;8.702;2022-09-14T15:51:37;2.60;;;0.90;;
41964;SDS011;50120;53.250;8.702;2022-09-14T15:54:05;2.90;;;0.90;;
41964;SDS011;50120;53.250;8.702;2022-09-14T15:56:31;4.07;;;0.95;;
41964;SDS011;50120;53.250;8.702;2022-09-14T15:58:57;4.70;;;1.00;;
41964;SDS011;50120;53.250;8.702;2022-09-14T16:01:24;3.85;;;1.10;;
41964;SDS011;50120;53.250;8.702;2022-09-14T16:04:01;4.72;;;1.05;;
41964;SDS011;50120;53.250;8.702;2022-09-14T16:06:29;3.63;;;0.90;;
41964;SDS011;50120;53.250;8.702;2022-09-14T16:08:55;4.68;;;1.10;;
41964;SDS011;50120;53.250;8.702;2022-09-14T16:11:22;3.20;;;0.70;;
41964;SDS011;50120;53.250;8.702;2022-09-14T16:13:48;2.03;;;0.60;;
41964;SDS011;50120;53.250;8.702;2022-09-14T16:16:15;2.15;;;0.70;;
41964;SDS011;50120;53.250;8.702;2022-09-14T16:18:41;4.32;;;0.90;;
41964;SDS011;50120;53.250;8.702;2022-09-14T16:21:15;3.55;;;0.90;;
41964;SDS011;50120;53.250;8.702;2022-09-14T16:23:44;3.67;;;0.70;;
41964;SDS011;50120;53.250;8.702;2022-09-14T16:26:14;5.47;;;1.27;;
41964;SDS011;50120;53.250;8.702;2022-09-14T16:28:43;3.13;;;0.88;;
41964;SDS011;50120;53.250;8.702;2022-09-14T16:31:12;1.65;;;0.65;;
41964;SDS011;50120;53.250;8.702;2022-09-14T16:33:41;4.80;;;0.90;;
41964;SDS011;50120;53.250;8.702;2022-09-14T16:36:09;3.95;;;0.95;;
41964;SDS011;50120;53.250;8.702;2022-09-14T16:38:37;3.42;;;0.95;;
41964;SDS011;50120;53.250;8.702;2022-09-14T16:41:03;2.38;;;0.82;;
41964;SDS011;50120;53.250;8.702;2022-09-14T16:43:30;3.47;;;0.85;;
41964;SDS011;50120;53.250;8.702;2022-09-14T16:46:00;3.00;;;0.73;;
41964;SDS011;50120;53.250;8.702;2022-09-14T16:48:31;2.83;;;0.90;;
41964;SDS011;50120;53.250;8.702;2022-09-14T16:50:57;1.55;;;0.80;;
41964;SDS011;50120;53.250;8.702;2022-09-14T16:53:26;3.67;;;1.10;;
41964;SDS011;50120;53.250;8.702;2022-09-14T16:55:58;2.50;;;0.77;;
41964;SDS011;50120;53.250;8.702;2022-09-14T16:58:32;2.53;;;0.93;;
41964;SDS011;50120;53.250;8.702;2022-09-14T17:01:08;1.95;;;0.80;;
41964;SDS011;50120;53.250;8.702;2022-09-14T17:03:42;3.70;;;0.95;;
41964;SDS011;50120;53.250;8.702;2022-09-14T17:06:10;3.75;;;1.02;;
41964;SDS011;50120;53.250;8.702;2022-09-14T17:08:38;2.33;;;0.85;;
41964;SDS011;50120;53.250;8.702;2022-09-14T17:11:04;2.67;;;0.95;;
41964;SDS011;50120;53.250;8.702;2022-09-14T17:13:30;3.85;;;0.95;;
41964;SDS011;50120;53.250;8.702;2022-09-14T17:16:06;2.25;;;0.77;;
41964;SDS011;50120;53.250;8.702;2022-09-14T17:18:37;2.95;;;0.98;;
41964;SDS011;50120;53.250;8.702;2022-09-14T17:21:05;5.10;;;1.25;;
41964;SDS011;50120;53.250;8.702;2022-09-14T17:23:33;5.47;;;1.10;;
41964;SDS011;50120;53.250;8.702;2022-09-14T17:26:01;5.50;;;0.90;;
41964;SDS011;50120;53.250;8.702;2022-09-14T17:28:29;2.78;;;0.73;;